sensor_id;sensor_type;location;lat;lon;timestamp;P1;durP1;ratioP1;P2;durP2;ratioP2
49310;SDS011;35177;45.900;5.946;2023-03-05T00:02:10;77.57;;;36.03;;
49310;SDS011;35177;45.900;5.946;2023-03-05T00:04:37;63.40;;;31.55;;
49310;SDS011;35177;45.900;5.946;2023-03-05T00:07:03;89.07;;;36.67;;
49310;SDS011;35177;45.900;5.946;2023-03-05T00:09:29;77.55;;;33.83;;
49310;SDS011;35177;45.900;5.946;2023-03-05T00:11:55;82.75;;;35.53;;
49310;SDS011;35177;45.900;5.946;2023-03-05T00:14:21;79.00;;;36.42;;
49310;SDS011;35177;45.900;5.946;2023-03-05T00:16:47;83.75;;;37.15;;
49310;SDS011;35177;45.900;5.946;2023-03-05T00:19:12;84.93;;;36.05;;
49310;SDS011;35177;45.900;5.946;2023-03-05T00:21:39;77.55;;;36.58;;
49310;SDS011;35177;45.900;5.946;2023-03-05T00:24:12;78.13;;;33.83;;
49310;SDS011;35177;45.900;5.946;2023-03-05T00:26:42;69.78;;;33.22;;
49310;SDS011;35177;45.900;5.946;2023-03-05T00:29:08;76.45;;;35.78;;
49310;SDS011;35177;45.900;5.946;2023-03-05T00:31:35;72.82;;;33.90;;
49310;SDS011;35177;45.900;5.946;2023-03-05T00:34:03;80.45;;;35.78;;
49310;SDS011;35177;45.900;5.946;2023-03-05T00:36:30;61.75;;;29.98;;
49310;SDS011;35177;45.900;5.946;2023-03-05T00:38:57;72.63;;;33.38;;
49310;SDS011;35177;45.900;5.946;2023-03-05T00:41:23;83.85;;;38.35;;
49310;SDS011;35177;45.900;5.946;2023-03-05T00:43:49;74.90;;;33.70;;
49310;SDS011;35177;45.900;5.946;2023-03-05T00:46:14;80.43;;;35.22;;
49310;SDS011;35177;45.900;5.946;2023-03-05T00:48:40;79.28;;;35.35;;
49310;SDS011;35177;45.900;5.946;2023-03-05T00:51:05;74.93;;;34.60;;
49310;SDS011;35177;45.900;5.946;2023-03-05T00:53:33;79.70;;;35.85;;
49310;SDS011;35177;45.900;5.946;2023-03-05T00:55:59;74.47;;;37.40;;
49310;SDS011;35177;45.900;5.946;2023-03-05T00:58:25;79.32;;;36.28;;
49310;SDS011;35177;45.900;5.946;2023-03-05T01:00:50;80.07;;;35.25;;
49310;SDS011;35177;45.900;5.946;2023-03-05T01:03:17;88.47;;;36.35;;
49310;SDS011;35177;45.900;5.946;2023-03-05T01:05:43;81.00;;;35.75;;
49310;SDS011;35177;45.900;5.946;2023-03-05T01:08:09;78.22;;;35.33;;
49310;SDS011;35177;45.900;5.946;2023-03-05T01:10:34;75.28;;;33.25;;
49310;SDS011;35177;45.900;5.946;2023-03-05T01:13:00;76.13;;;33.60;;
49310;SDS011;35177;45.900;5.946;2023-03-05T01:15:25;78.93;;;36.83;;
49310;SDS011;35177;45.900;5.946;2023-03-05T01:17:51;89.15;;;38.78;;
49310;SDS011;35177;45.900;5.946;2023-03-05T01:20:18;70.35;;;32.85;;
49310;SDS011;35177;45.900;5.946;2023-03-05T01:22:44;73.15;;;33.72;;
49310;SDS011;35177;45.900;5.946;2023-03-05T01:25:11;85.07;;;38.83;;
49310;SDS011;35177;45.900;5.946;2023-03-05T01:27:38;85.97;;;37.38;;
49310;SDS011;35177;45.900;5.946;2023-03-05T01:30:04;85.20;;;35.78;;
49310;SDS011;35177;45.900;5.946;2023-03-05T01:32:32;77.68;;;34.58;;
49310;SDS011;35177;45.900;5.946;2023-03-05T01:34:59;66.85;;;31.98;;
49310;SDS011;35177;45.900;5.946;2023-03-05T01:37:25;66.80;;;31.38;;
49310;SDS011;35177;45.900;5.946;2023-03-05T01:39:51;64.20;;;29.83;;
49310;SDS011;35177;45.900;5.946;2023-03-05T01:42:17;78.68;;;34.80;;
49310;SDS011;35177;45.900;5.946;2023-03-05T01:47:47;67.80;;;29.70;;
49310;SDS011;35177;45.900;5.946;2023-03-05T01:50:15;74.70;;;35.63;;
49310;SDS011;35177;45.900;5.946;2023-03-05T01:52:43;77.07;;;33.08;;
49310;SDS011;35177;45.900;5.946;2023-03-05T01:55:15;78.13;;;31.98;;
49310;SDS011;35177;45.900;5.946;2023-03-05T01:57:48;61.00;;;28.25;;
49310;SDS011;35177;45.900;5.946;2023-03-05T02:00:17;66.72;;;31.73;;
49310;SDS011;35177;45.900;5.946;2023-03-05T02:02:48;70.85;;;32.22;;
49310;SDS011;35177;45.900;5.946;2023-03-05T02:05:17;70.18;;;33.03;;
49310;SDS011;35177;45.900;5.946;2023-03-05T02:08:02;74.50;;;32.65;;
49310;SDS011;35177;45.900;5.946;2023-03-05T02:10:31;77.60;;;35.92;;
49310;SDS011;35177;45.900;5.946;2023-03-05T02:13:02;65.53;;;32.40;;
49310;SDS011;35177;45.900;5.946;2023-03-05T02:15:31;68.00;;;32.60;;
49310;SDS011;35177;45.900;5.946;2023-03-05T02:17:57;77.88;;;35.67;;
49310;SDS011;35177;45.900;5.946;2023-03-05T02:20:26;75.57;;;34.10;;
49310;SDS011;35177;45.900;5.946;2023-03-05T02:22:55;66.15;;;30.88;;
49310;SDS011;35177;45.900;5.946;2023-03-05T02:25:22;63.08;;;28.80;;
49310;SDS011;35177;45.900;5.946;2023-03-05T02:27:55;67.90;;;29.85;;
49310;SDS011;35177;45.900;5.946;2023-03-05T02:30:24;68.57;;;30.67;;
49310;SDS011;35177;45.900;5.946;2023-03-05T02:32:49;62.55;;;30.23;;
49310;SDS011;35177;45.900;5.946;2023-03-05T02:35:15;66.70;;;29.13;;
49310;SDS011;35177;45.900;5.946;2023-03-05T02:37:41;64.95;;;29.58;;
49310;SDS011;35177;45.900;5.946;2023-03-05T02:40:07;67.28;;;29.48;;
49310;SDS011;35177;45.900;5.946;2023-03-05T02:42:33;62.28;;;29.83;;
49310;SDS011;35177;45.900;5.946;2023-03-05T02:45:00;72.75;;;31.48;;
49310;SDS011;35177;45.900;5.946;2023-03-05T02:47:26;74.15;;;31.40;;
49310;SDS011;35177;45.900;5.946;2023-03-05T02:49:52;73.43;;;32.45;;
49310;SDS011;35177;45.900;5.946;2023-03-05T02:52:18;67.03;;;30.02;;
49310;SDS011;35177;45.900;5.946;2023-03-05T02:54:43;73.72;;;33.25;;
49310;SDS011;35177;45.900;5.946;2023-03-05T02:57:09;71.32;;;32.17;;
49310;SDS011;35177;45.900;5.946;2023-03-05T02:59:35;74.72;;;32.47;;
49310;SDS011;35177;45.900;5.946;2023-03-05T03:02:00;69.88;;;32.13;;
49310;SDS011;35177;45.900;5.946;2023-03-05T03:04:25;74.55;;;33.17;;
49310;SDS011;35177;45.900;5.946;2023-03-05T03:06:51;67.43;;;31.13;;
49310;SDS011;35177;45.900;5.946;2023-03-05T03:09:17;71.07;;;32.47;;
49310;SDS011;35177;45.900;5.946;2023-03-05T03:11:42;78.82;;;32.72;;
49310;SDS011;35177;45.900;5.946;2023-03-05T03:14:08;68.28;;;31.40;;
49310;SDS011;35177;45.900;5.946;2023-03-05T03:16:33;57.53;;;27.90;;
49310;SDS011;35177;45.900;5.946;2023-03-05T03:18:59;68.72;;;29.13;;
49310;SDS011;35177;45.900;5.946;2023-03-05T03:21:24;64.22;;;29.00;;
49310;SDS011;35177;45.900;5.946;2023-03-05T03:23:51;58.65;;;28.50;;
49310;SDS011;35177;45.900;5.946;2023-03-05T03:26:17;58.38;;;28.52;;
49310;SDS011;35177;45.900;5.946;2023-03-05T03:28:43;78.57;;;35.83;;
49310;SDS011;35177;45.900;5.946;2023-03-05T03:31:09;73.93;;;34.17;;
49310;SDS011;35177;45.900;5.946;2023-03-05T03:33:34;76.32;;;32.50;;
49310;SDS011;35177;45.900;5.946;2023-03-05T03:36:00;68.30;;;32.58;;
49310;SDS011;35177;45.900;5.946;2023-03-05T03:38:25;70.13;;;31.73;;
49310;SDS011;35177;45.900;5.946;2023-03-05T03:40:51;72.40;;;31.20;;
49310;SDS011;35177;45.900;5.946;2023-03-05T03:43:17;79.53;;;33.83;;
49310;SDS011;35177;45.900;5.946;2023-03-05T03:45:42;75.70;;;34.83;;
49310;SDS011;35177;45.900;5.946;2023-03-05T03:48:09;71.53;;;30.83;;
49310;SDS011;35177;45.900;5.946;2023-03-05T03:50:38;75.80;;;34.15;;
49310;SDS011;35177;45.900;5.946;2023-03-05T03:53:04;84.53;;;35.60;;
49310;SDS011;35177;45.900;5.946;2023-03-05T03:55:30;77.32;;;34.50;;
49310;SDS011;35177;45.900;5.946;2023-03-05T03:57:55;78.22;;;34.38;;
49310;SDS011;35177;45.900;5.946;2023-03-05T04:00:21;87.68;;;34.88;;
49310;SDS011;35177;45.900;5.946;2023-03-05T04:02:46;89.57;;;36.75;;
49310;SDS011;35177;45.900;5.946;2023-03-05T04:05:12;80.43;;;37.17;;
49310;SDS011;35177;45.900;5.946;2023-03-05T04:07:37;73.25;;;33.85;;
49310;SDS011;35177;45.900;5.946;2023-03-05T04:10:03;76.28;;;33.42;;
49310;SDS011;35177;45.900;5.946;2023-03-05T04:12:29;71.72;;;33.72;;
49310;SDS011;35177;45.900;5.946;2023-03-05T04:14:55;113.80;;;44.15;;
49310;SDS011;35177;45.900;5.946;2023-03-05T04:17:20;123.80;;;45.95;;
49310;SDS011;35177;45.900;5.946;2023-03-05T04:19:46;76.15;;;33.95;;
49310;SDS011;35177;45.900;5.946;2023-03-05T04:22:13;78.88;;;33.95;;
49310;SDS011;35177;45.900;5.946;2023-03-05T04:24:40;74.72;;;33.05;;
49310;SDS011;35177;45.900;5.946;2023-03-05T04:27:06;74.35;;;31.75;;
49310;SDS011;35177;45.900;5.946;2023-03-05T04:29:32;68.50;;;33.75;;
49310;SDS011;35177;45.900;5.946;2023-03-05T04:31:58;69.68;;;32.88;;
49310;SDS011;35177;45.900;5.946;2023-03-05T04:34:24;66.30;;;30.63;;
49310;SDS011;35177;45.900;5.946;2023-03-05T04:36:49;61.08;;;29.98;;
49310;SDS011;35177;45.900;5.946;2023-03-05T04:39:15;76.63;;;31.92;;
49310;SDS011;35177;45.900;5.946;2023-03-05T04:41:40;66.55;;;30.85;;
49310;SDS011;35177;45.900;5.946;2023-03-05T04:44:06;72.60;;;31.40;;
49310;SDS011;35177;45.900;5.946;2023-03-05T04:46:31;71.28;;;32.42;;
49310;SDS011;35177;45.900;5.946;2023-03-05T04:48:57;67.25;;;30.75;;
49310;SDS011;35177;45.900;5.946;2023-03-05T04:51:23;65.57;;;30.63;;
49310;SDS011;35177;45.900;5.946;2023-03-05T04:53:48;66.65;;;30.33;;
49310;SDS011;35177;45.900;5.946;2023-03-05T04:56:14;68.10;;;31.10;;
49310;SDS011;35177;45.900;5.946;2023-03-05T04:58:39;65.90;;;29.65;;
49310;SDS011;35177;45.900;5.946;2023-03-05T05:01:05;57.13;;;27.73;;
49310;SDS011;35177;45.900;5.946;2023-03-05T05:03:31;68.25;;;29.10;;
49310;SDS011;35177;45.900;5.946;2023-03-05T05:05:58;63.00;;;28.95;;
49310;SDS011;35177;45.900;5.946;2023-03-05T05:08:25;61.00;;;28.45;;
49310;SDS011;35177;45.900;5.946;2023-03-05T05:11:01;65.05;;;28.67;;
49310;SDS011;35177;45.900;5.946;2023-03-05T05:13:28;59.42;;;26.75;;
49310;SDS011;35177;45.900;5.946;2023-03-05T05:15:55;61.45;;;28.52;;
49310;SDS011;35177;45.900;5.946;2023-03-05T05:18:21;58.55;;;30.20;;
49310;SDS011;35177;45.900;5.946;2023-03-05T05:20:47;79.30;;;34.22;;
49310;SDS011;35177;45.900;5.946;2023-03-05T05:23:13;66.50;;;31.05;;
49310;SDS011;35177;45.900;5.946;2023-03-05T05:25:39;72.97;;;29.63;;
49310;SDS011;35177;45.900;5.946;2023-03-05T05:28:04;72.55;;;31.35;;
49310;SDS011;35177;45.900;5.946;2023-03-05T05:30:30;75.80;;;31.90;;
49310;SDS011;35177;45.900;5.946;2023-03-05T05:32:56;63.92;;;30.38;;
49310;SDS011;35177;45.900;5.946;2023-03-05T05:35:21;69.05;;;30.60;;
49310;SDS011;35177;45.900;5.946;2023-03-05T05:37:47;56.15;;;25.60;;
49310;SDS011;35177;45.900;5.946;2023-03-05T05:40:12;65.43;;;30.38;;
49310;SDS011;35177;45.900;5.946;2023-03-05T05:42:38;61.83;;;29.55;;
49310;SDS011;35177;45.900;5.946;2023-03-05T05:45:04;69.82;;;29.77;;
49310;SDS011;35177;45.900;5.946;2023-03-05T05:47:30;63.65;;;29.45;;
49310;SDS011;35177;45.900;5.946;2023-03-05T05:49:55;76.20;;;32.53;;
49310;SDS011;35177;45.900;5.946;2023-03-05T05:52:21;84.18;;;37.50;;
49310;SDS011;35177;45.900;5.946;2023-03-05T05:54:47;76.25;;;37.70;;
49310;SDS011;35177;45.900;5.946;2023-03-05T05:57:13;88.10;;;35.88;;
49310;SDS011;35177;45.900;5.946;2023-03-05T05:59:38;77.45;;;35.05;;
49310;SDS011;35177;45.900;5.946;2023-03-05T06:02:04;78.88;;;35.85;;
49310;SDS011;35177;45.900;5.946;2023-03-05T06:04:32;84.68;;;36.35;;
49310;SDS011;35177;45.900;5.946;2023-03-05T06:06:58;83.38;;;37.42;;
49310;SDS011;35177;45.900;5.946;2023-03-05T06:09:24;86.60;;;37.30;;
49310;SDS011;35177;45.900;5.946;2023-03-05T06:11:50;80.43;;;34.25;;
49310;SDS011;35177;45.900;5.946;2023-03-05T06:14:16;77.50;;;33.97;;
49310;SDS011;35177;45.900;5.946;2023-03-05T06:16:42;78.25;;;35.47;;
49310;SDS011;35177;45.900;5.946;2023-03-05T06:19:08;90.03;;;40.17;;
49310;SDS011;35177;45.900;5.946;2023-03-05T06:21:36;75.53;;;35.17;;
49310;SDS011;35177;45.900;5.946;2023-03-05T06:24:02;73.88;;;33.83;;
49310;SDS011;35177;45.900;5.946;2023-03-05T06:26:28;75.43;;;32.90;;
49310;SDS011;35177;45.900;5.946;2023-03-05T06:28:54;85.82;;;35.60;;
49310;SDS011;35177;45.900;5.946;2023-03-05T06:31:20;77.78;;;33.58;;
49310;SDS011;35177;45.900;5.946;2023-03-05T06:33:49;88.57;;;34.60;;
49310;SDS011;35177;45.900;5.946;2023-03-05T06:36:16;77.65;;;34.55;;
49310;SDS011;35177;45.900;5.946;2023-03-05T06:38:43;65.18;;;31.65;;
49310;SDS011;35177;45.900;5.946;2023-03-05T06:41:12;71.13;;;32.63;;
49310;SDS011;35177;45.900;5.946;2023-03-05T06:43:41;78.25;;;32.53;;
49310;SDS011;35177;45.900;5.946;2023-03-05T06:48:41;64.20;;;28.60;;
49310;SDS011;35177;45.900;5.946;2023-03-05T06:51:21;64.68;;;30.50;;
49310;SDS011;35177;45.900;5.946;2023-03-05T06:53:51;66.60;;;30.83;;
49310;SDS011;35177;45.900;5.946;2023-03-05T06:56:18;65.50;;;30.10;;
49310;SDS011;35177;45.900;5.946;2023-03-05T06:58:45;71.85;;;29.73;;
49310;SDS011;35177;45.900;5.946;2023-03-05T07:01:13;80.80;;;34.97;;
49310;SDS011;35177;45.900;5.946;2023-03-05T07:03:40;98.85;;;42.97;;
49310;SDS011;35177;45.900;5.946;2023-03-05T07:06:07;83.60;;;39.42;;
49310;SDS011;35177;45.900;5.946;2023-03-05T07:08:34;66.95;;;31.38;;
49310;SDS011;35177;45.900;5.946;2023-03-05T07:11:00;80.18;;;33.47;;
49310;SDS011;35177;45.900;5.946;2023-03-05T07:13:27;72.53;;;31.90;;
49310;SDS011;35177;45.900;5.946;2023-03-05T07:15:53;66.95;;;32.45;;
49310;SDS011;35177;45.900;5.946;2023-03-05T07:18:19;67.25;;;32.17;;
49310;SDS011;35177;45.900;5.946;2023-03-05T07:20:45;64.03;;;32.22;;
49310;SDS011;35177;45.900;5.946;2023-03-05T07:23:10;72.57;;;33.35;;
49310;SDS011;35177;45.900;5.946;2023-03-05T07:25:37;69.75;;;35.28;;
49310;SDS011;35177;45.900;5.946;2023-03-05T07:28:03;73.30;;;35.60;;
49310;SDS011;35177;45.900;5.946;2023-03-05T07:30:30;63.63;;;31.40;;
49310;SDS011;35177;45.900;5.946;2023-03-05T07:32:57;61.53;;;29.50;;
49310;SDS011;35177;45.900;5.946;2023-03-05T07:35:22;61.25;;;29.90;;
49310;SDS011;35177;45.900;5.946;2023-03-05T07:37:48;56.72;;;30.13;;
49310;SDS011;35177;45.900;5.946;2023-03-05T07:40:15;53.97;;;28.35;;
49310;SDS011;35177;45.900;5.946;2023-03-05T07:42:41;57.03;;;28.15;;
49310;SDS011;35177;45.900;5.946;2023-03-05T07:45:07;56.83;;;26.33;;
49310;SDS011;35177;45.900;5.946;2023-03-05T07:47:33;54.45;;;27.98;;
49310;SDS011;35177;45.900;5.946;2023-03-05T07:49:58;52.90;;;27.95;;
49310;SDS011;35177;45.900;5.946;2023-03-05T07:52:24;57.55;;;29.27;;
49310;SDS011;35177;45.900;5.946;2023-03-05T07:54:50;55.60;;;29.17;;
49310;SDS011;35177;45.900;5.946;2023-03-05T07:57:15;61.50;;;28.05;;
49310;SDS011;35177;45.900;5.946;2023-03-05T07:59:41;56.00;;;28.80;;
49310;SDS011;35177;45.900;5.946;2023-03-05T08:02:09;57.33;;;28.95;;
49310;SDS011;35177;45.900;5.946;2023-03-05T08:04:36;59.17;;;30.17;;
49310;SDS011;35177;45.900;5.946;2023-03-05T08:07:02;59.65;;;30.17;;
49310;SDS011;35177;45.900;5.946;2023-03-05T08:09:28;55.35;;;28.52;;
49310;SDS011;35177;45.900;5.946;2023-03-05T08:11:53;56.50;;;28.58;;
49310;SDS011;35177;45.900;5.946;2023-03-05T08:14:19;58.22;;;28.13;;
49310;SDS011;35177;45.900;5.946;2023-03-05T08:16:44;59.70;;;29.60;;
49310;SDS011;35177;45.900;5.946;2023-03-05T08:19:11;58.17;;;28.95;;
49310;SDS011;35177;45.900;5.946;2023-03-05T08:21:36;57.67;;;28.83;;
49310;SDS011;35177;45.900;5.946;2023-03-05T08:24:03;53.47;;;29.30;;
49310;SDS011;35177;45.900;5.946;2023-03-05T08:26:31;67.75;;;30.67;;
49310;SDS011;35177;45.900;5.946;2023-03-05T08:28:58;62.75;;;31.23;;
49310;SDS011;35177;45.900;5.946;2023-03-05T08:31:25;59.55;;;29.63;;
49310;SDS011;35177;45.900;5.946;2023-03-05T08:33:52;70.72;;;33.28;;
49310;SDS011;35177;45.900;5.946;2023-03-05T08:36:19;68.60;;;30.88;;
49310;SDS011;35177;45.900;5.946;2023-03-05T08:38:45;63.00;;;31.30;;
49310;SDS011;35177;45.900;5.946;2023-03-05T08:41:12;64.38;;;31.40;;
49310;SDS011;35177;45.900;5.946;2023-03-05T08:43:39;72.30;;;35.15;;
49310;SDS011;35177;45.900;5.946;2023-03-05T08:46:06;70.20;;;35.20;;
49310;SDS011;35177;45.900;5.946;2023-03-05T08:48:32;68.82;;;34.63;;
49310;SDS011;35177;45.900;5.946;2023-03-05T08:51:07;71.70;;;34.85;;
49310;SDS011;35177;45.900;5.946;2023-03-05T08:56:20;76.53;;;35.72;;
49310;SDS011;35177;45.900;5.946;2023-03-05T08:58:46;70.25;;;34.45;;
49310;SDS011;35177;45.900;5.946;2023-03-05T09:01:12;72.43;;;33.88;;
49310;SDS011;35177;45.900;5.946;2023-03-05T09:03:38;69.22;;;35.63;;
49310;SDS011;35177;45.900;5.946;2023-03-05T09:06:05;74.30;;;37.38;;
49310;SDS011;35177;45.900;5.946;2023-03-05T09:08:33;73.05;;;36.65;;
49310;SDS011;35177;45.900;5.946;2023-03-05T09:11:03;74.78;;;35.30;;
49310;SDS011;35177;45.900;5.946;2023-03-05T09:13:30;68.72;;;34.22;;
49310;SDS011;35177;45.900;5.946;2023-03-05T09:15:57;72.18;;;33.78;;
49310;SDS011;35177;45.900;5.946;2023-03-05T09:18:27;67.35;;;33.28;;
49310;SDS011;35177;45.900;5.946;2023-03-05T09:20:53;70.18;;;33.55;;
49310;SDS011;35177;45.900;5.946;2023-03-05T09:23:18;60.55;;;30.65;;
49310;SDS011;35177;45.900;5.946;2023-03-05T09:25:44;61.17;;;31.67;;
49310;SDS011;35177;45.900;5.946;2023-03-05T09:28:10;56.50;;;30.05;;
49310;SDS011;35177;45.900;5.946;2023-03-05T09:30:35;64.22;;;34.45;;
49310;SDS011;35177;45.900;5.946;2023-03-05T09:33:02;62.55;;;30.73;;
49310;SDS011;35177;45.900;5.946;2023-03-05T09:35:28;63.03;;;30.45;;
49310;SDS011;35177;45.900;5.946;2023-03-05T09:37:54;61.22;;;30.05;;
49310;SDS011;35177;45.900;5.946;2023-03-05T09:40:20;61.63;;;28.98;;
49310;SDS011;35177;45.900;5.946;2023-03-05T09:43:08;54.47;;;29.33;;
49310;SDS011;35177;45.900;5.946;2023-03-05T09:45:57;50.92;;;27.15;;
49310;SDS011;35177;45.900;5.946;2023-03-05T09:48:41;52.45;;;28.73;;
49310;SDS011;35177;45.900;5.946;2023-03-05T09:51:20;50.78;;;27.98;;
49310;SDS011;35177;45.900;5.946;2023-03-05T09:53:56;52.47;;;26.38;;
49310;SDS011;35177;45.900;5.946;2023-03-05T09:56:47;52.63;;;27.83;;
49310;SDS011;35177;45.900;5.946;2023-03-05T09:59:28;51.28;;;27.35;;
49310;SDS011;35177;45.900;5.946;2023-03-05T10:02:01;56.10;;;26.77;;
49310;SDS011;35177;45.900;5.946;2023-03-05T10:07:35;48.45;;;26.58;;
49310;SDS011;35177;45.900;5.946;2023-03-05T10:10:09;44.45;;;25.95;;
49310;SDS011;35177;45.900;5.946;2023-03-05T10:15:13;49.13;;;26.85;;
49310;SDS011;35177;45.900;5.946;2023-03-05T10:42:28;43.15;;;24.48;;
49310;SDS011;35177;45.900;5.946;2023-03-05T10:45:14;45.10;;;25.55;;
49310;SDS011;35177;45.900;5.946;2023-03-05T10:47:44;46.75;;;25.95;;
49310;SDS011;35177;45.900;5.946;2023-03-05T10:50:22;46.03;;;25.73;;
49310;SDS011;35177;45.900;5.946;2023-03-05T10:52:51;44.92;;;24.83;;
49310;SDS011;35177;45.900;5.946;2023-03-05T10:55:38;42.10;;;24.98;;
49310;SDS011;35177;45.900;5.946;2023-03-05T10:58:11;49.83;;;24.10;;
49310;SDS011;35177;45.900;5.946;2023-03-05T11:00:38;45.58;;;25.17;;
49310;SDS011;35177;45.900;5.946;2023-03-05T11:03:05;52.13;;;26.40;;
49310;SDS011;35177;45.900;5.946;2023-03-05T11:05:41;43.63;;;25.15;;
49310;SDS011;35177;45.900;5.946;2023-03-05T11:08:23;47.38;;;25.67;;
49310;SDS011;35177;45.900;5.946;2023-03-05T11:13:40;45.67;;;25.42;;
49310;SDS011;35177;45.900;5.946;2023-03-05T11:16:19;46.08;;;25.17;;
49310;SDS011;35177;45.900;5.946;2023-03-05T11:21:39;44.90;;;25.52;;
49310;SDS011;35177;45.900;5.946;2023-03-05T11:24:09;44.42;;;24.70;;
49310;SDS011;35177;45.900;5.946;2023-03-05T11:26:40;42.70;;;24.27;;
49310;SDS011;35177;45.900;5.946;2023-03-05T11:29:22;44.13;;;24.98;;
49310;SDS011;35177;45.900;5.946;2023-03-05T11:31:55;46.55;;;24.25;;
49310;SDS011;35177;45.900;5.946;2023-03-05T11:34:39;42.63;;;24.02;;
49310;SDS011;35177;45.900;5.946;2023-03-05T11:37:05;39.35;;;22.92;;
49310;SDS011;35177;45.900;5.946;2023-03-05T11:39:32;45.75;;;24.83;;
49310;SDS011;35177;45.900;5.946;2023-03-05T11:42:05;44.25;;;24.08;;
49310;SDS011;35177;45.900;5.946;2023-03-05T11:49:40;41.28;;;23.40;;
49310;SDS011;35177;45.900;5.946;2023-03-05T11:52:14;45.78;;;24.17;;
49310;SDS011;35177;45.900;5.946;2023-03-05T11:57:12;46.35;;;24.63;;
49310;SDS011;35177;45.900;5.946;2023-03-05T11:59:39;43.25;;;24.45;;
49310;SDS011;35177;45.900;5.946;2023-03-05T12:02:20;43.00;;;24.75;;
49310;SDS011;35177;45.900;5.946;2023-03-05T12:04:48;40.25;;;23.67;;
49310;SDS011;35177;45.900;5.946;2023-03-05T12:07:15;42.05;;;23.55;;
49310;SDS011;35177;45.900;5.946;2023-03-05T12:09:50;38.00;;;22.48;;
49310;SDS011;35177;45.900;5.946;2023-03-05T12:12:21;43.97;;;23.35;;
49310;SDS011;35177;45.900;5.946;2023-03-05T12:15:17;42.85;;;23.70;;
49310;SDS011;35177;45.900;5.946;2023-03-05T12:20:26;43.92;;;23.48;;
49310;SDS011;35177;45.900;5.946;2023-03-05T12:23:11;40.47;;;23.15;;
49310;SDS011;35177;45.900;5.946;2023-03-05T12:25:47;40.30;;;23.77;;
49310;SDS011;35177;45.900;5.946;2023-03-05T12:30:57;43.97;;;24.48;;
49310;SDS011;35177;45.900;5.946;2023-03-05T12:33:43;47.00;;;24.88;;
49310;SDS011;35177;45.900;5.946;2023-03-05T12:38:44;46.75;;;23.75;;
49310;SDS011;35177;45.900;5.946;2023-03-05T12:43:54;43.58;;;24.63;;
49310;SDS011;35177;45.900;5.946;2023-03-05T12:46:32;45.13;;;23.35;;
49310;SDS011;35177;45.900;5.946;2023-03-05T12:49:00;43.42;;;24.48;;
49310;SDS011;35177;45.900;5.946;2023-03-05T12:51:50;41.13;;;23.80;;
49310;SDS011;35177;45.900;5.946;2023-03-05T12:56:46;42.25;;;23.80;;
49310;SDS011;35177;45.900;5.946;2023-03-05T12:59:12;45.22;;;23.33;;
49310;SDS011;35177;45.900;5.946;2023-03-05T13:01:49;45.17;;;22.95;;
49310;SDS011;35177;45.900;5.946;2023-03-05T13:04:27;42.75;;;22.40;;
49310;SDS011;35177;45.900;5.946;2023-03-05T13:07:02;38.78;;;23.17;;
49310;SDS011;35177;45.900;5.946;2023-03-05T13:09:31;43.63;;;24.75;;
49310;SDS011;35177;45.900;5.946;2023-03-05T13:11:59;44.45;;;23.65;;
49310;SDS011;35177;45.900;5.946;2023-03-05T13:15:01;39.60;;;21.98;;
49310;SDS011;35177;45.900;5.946;2023-03-05T13:17:37;43.65;;;22.55;;
49310;SDS011;35177;45.900;5.946;2023-03-05T13:25:35;37.90;;;21.13;;
49310;SDS011;35177;45.900;5.946;2023-03-05T13:28:01;41.70;;;22.77;;
49310;SDS011;35177;45.900;5.946;2023-03-05T13:30:28;39.45;;;24.85;;
49310;SDS011;35177;45.900;5.946;2023-03-05T13:32:55;41.33;;;22.88;;
49310;SDS011;35177;45.900;5.946;2023-03-05T13:35:27;44.10;;;23.55;;
49310;SDS011;35177;45.900;5.946;2023-03-05T13:37:53;42.30;;;22.25;;
49310;SDS011;35177;45.900;5.946;2023-03-05T13:40:26;35.58;;;20.65;;
49310;SDS011;35177;45.900;5.946;2023-03-05T13:43:07;39.60;;;21.90;;
49310;SDS011;35177;45.900;5.946;2023-03-05T13:45:36;37.20;;;22.17;;
49310;SDS011;35177;45.900;5.946;2023-03-05T13:48:02;38.50;;;21.55;;
49310;SDS011;35177;45.900;5.946;2023-03-05T13:50:35;36.40;;;21.48;;
49310;SDS011;35177;45.900;5.946;2023-03-05T13:56:03;38.25;;;21.10;;
49310;SDS011;35177;45.900;5.946;2023-03-05T14:01:23;33.78;;;19.77;;
49310;SDS011;35177;45.900;5.946;2023-03-05T14:04:01;36.00;;;20.42;;
49310;SDS011;35177;45.900;5.946;2023-03-05T14:09:25;34.45;;;19.98;;
49310;SDS011;35177;45.900;5.946;2023-03-05T14:14:27;33.70;;;20.25;;
49310;SDS011;35177;45.900;5.946;2023-03-05T14:16:53;33.88;;;19.58;;
49310;SDS011;35177;45.900;5.946;2023-03-05T14:19:52;37.80;;;20.95;;
49310;SDS011;35177;45.900;5.946;2023-03-05T14:22:26;37.83;;;20.45;;
49310;SDS011;35177;45.900;5.946;2023-03-05T14:24:54;38.17;;;21.40;;
49310;SDS011;35177;45.900;5.946;2023-03-05T14:27:19;34.50;;;20.35;;
49310;SDS011;35177;45.900;5.946;2023-03-05T14:29:46;36.20;;;20.45;;
49310;SDS011;35177;45.900;5.946;2023-03-05T14:32:18;37.20;;;20.13;;
49310;SDS011;35177;45.900;5.946;2023-03-05T14:34:59;48.28;;;26.75;;
49310;SDS011;35177;45.900;5.946;2023-03-05T14:37:35;35.58;;;21.08;;
49310;SDS011;35177;45.900;5.946;2023-03-05T14:40:06;40.50;;;22.33;;
49310;SDS011;35177;45.900;5.946;2023-03-05T14:45:28;36.67;;;19.73;;
49310;SDS011;35177;45.900;5.946;2023-03-05T14:47:55;37.38;;;20.70;;
49310;SDS011;35177;45.900;5.946;2023-03-05T14:52:50;39.53;;;20.55;;
49310;SDS011;35177;45.900;5.946;2023-03-05T14:55:19;38.60;;;20.58;;
49310;SDS011;35177;45.900;5.946;2023-03-05T14:57:47;35.80;;;19.10;;
49310;SDS011;35177;45.900;5.946;2023-03-05T15:02:41;37.38;;;20.48;;
49310;SDS011;35177;45.900;5.946;2023-03-05T15:05:06;36.85;;;20.95;;
49310;SDS011;35177;45.900;5.946;2023-03-05T15:07:32;38.10;;;20.85;;
49310;SDS011;35177;45.900;5.946;2023-03-05T15:09:58;39.78;;;21.35;;
49310;SDS011;35177;45.900;5.946;2023-03-05T15:12:24;39.15;;;20.65;;
49310;SDS011;35177;45.900;5.946;2023-03-05T15:14:53;37.30;;;21.48;;
49310;SDS011;35177;45.900;5.946;2023-03-05T15:17:24;39.47;;;21.13;;
49310;SDS011;35177;45.900;5.946;2023-03-05T15:19:53;40.10;;;21.30;;
49310;SDS011;35177;45.900;5.946;2023-03-05T15:22:18;37.13;;;21.02;;
49310;SDS011;35177;45.900;5.946;2023-03-05T15:24:44;37.83;;;20.83;;
49310;SDS011;35177;45.900;5.946;2023-03-05T15:27:10;40.88;;;21.65;;
49310;SDS011;35177;45.900;5.946;2023-03-05T15:29:35;35.72;;;20.38;;
49310;SDS011;35177;45.900;5.946;2023-03-05T15:32:01;38.83;;;21.23;;
49310;SDS011;35177;45.900;5.946;2023-03-05T15:34:28;41.40;;;20.90;;
49310;SDS011;35177;45.900;5.946;2023-03-05T15:36:53;48.22;;;21.50;;
49310;SDS011;35177;45.900;5.946;2023-03-05T15:39:20;37.45;;;21.75;;
49310;SDS011;35177;45.900;5.946;2023-03-05T15:41:48;39.38;;;22.10;;
49310;SDS011;35177;45.900;5.946;2023-03-05T15:44:14;39.80;;;20.92;;
49310;SDS011;35177;45.900;5.946;2023-03-05T15:46:40;37.95;;;20.92;;
49310;SDS011;35177;45.900;5.946;2023-03-05T15:49:05;41.60;;;20.70;;
49310;SDS011;35177;45.900;5.946;2023-03-05T15:51:31;44.05;;;21.67;;
49310;SDS011;35177;45.900;5.946;2023-03-05T15:53:56;37.80;;;20.85;;
49310;SDS011;35177;45.900;5.946;2023-03-05T15:56:22;38.85;;;22.38;;
49310;SDS011;35177;45.900;5.946;2023-03-05T15:58:48;39.97;;;22.02;;